createdAt,value
2022-08-27T00:01:42.660Z,12.88
2022-08-27T00:04:10.884Z,13.90
2022-08-27T00:06:39.040Z,15.75
2022-08-27T00:09:07.583Z,14.30
2022-08-27T00:11:35.819Z,18.75
2022-08-27T00:14:04.148Z,14.35
2022-08-27T00:16:32.611Z,12.60
2022-08-27T00:19:02.215Z,12.20
2022-08-27T00:21:30.427Z,12.65
2022-08-27T00:23:58.547Z,14.65
2022-08-27T00:26:26.763Z,14.55
2022-08-27T00:28:54.930Z,15.93
2022-08-27T00:31:27.496Z,15.40
2022-08-27T00:33:56.044Z,14.52
2022-08-27T00:36:25.628Z,12.93
2022-08-27T00:38:54.100Z,16.38
2022-08-27T00:41:22.656Z,12.30
2022-08-27T00:43:52.399Z,13.55
2022-08-27T00:46:24.665Z,12.82
2022-08-27T00:48:53.853Z,13.25
2022-08-27T00:51:22.223Z,14.02
2022-08-27T00:53:51.840Z,15.18
2022-08-27T00:56:22.208Z,12.63
2022-08-27T00:58:52.791Z,12.82
2022-08-27T01:01:22.519Z,12.60
2022-08-27T01:03:52.749Z,12.93
2022-08-27T01:06:21.977Z,14.38
2022-08-27T01:08:53.896Z,13.27
2022-08-27T01:11:22.055Z,13.60
2022-08-27T01:13:59.933Z,13.82
2022-08-27T01:16:31.061Z,13.65
2022-08-27T01:19:00.934Z,11.50
2022-08-27T01:21:32.268Z,12.68
2022-08-27T01:24:04.419Z,12.60
2022-08-27T01:26:33.955Z,15.77
2022-08-27T01:29:02.077Z,12.55
2022-08-27T01:31:30.379Z,12.90
2022-08-27T01:34:00.103Z,11.30
2022-08-27T01:36:28.590Z,10.88
2022-08-27T01:38:57.526Z,13.57
2022-08-27T01:41:25.758Z,12.90
2022-08-27T01:43:55.344Z,16.25
2022-08-27T01:46:24.485Z,12.82
2022-08-27T01:48:52.656Z,14.35
2022-08-27T01:51:20.799Z,11.65
2022-08-27T01:53:49.049Z,11.55
2022-08-27T01:56:17.217Z,13.05
2022-08-27T01:58:45.622Z,10.27
2022-08-27T02:01:16.591Z,12.52
2022-08-27T02:03:47.307Z,12.57
2022-08-27T02:06:15.628Z,12.65
2022-08-27T02:08:44.064Z,14.07
2022-08-27T02:11:12.185Z,11.65
2022-08-27T02:13:40.448Z,12.00
2022-08-27T02:16:09.111Z,17.67
2022-08-27T02:18:41.830Z,14.63
2022-08-27T02:21:10.936Z,15.02
2022-08-27T02:23:39.761Z,14.65
2022-08-27T02:26:08.065Z,10.40
2022-08-27T02:28:36.240Z,13.05
2022-08-27T02:31:04.897Z,12.82
2022-08-27T02:33:34.804Z,11.40
2022-08-27T02:36:04.683Z,12.35
2022-08-27T02:38:34.720Z,11.73
2022-08-27T02:41:02.826Z,13.15
2022-08-27T02:43:31.546Z,11.85
2022-08-27T02:45:59.686Z,14.75
2022-08-27T02:48:27.843Z,12.60
2022-08-27T02:50:56.042Z,11.93
2022-08-27T02:53:25.551Z,14.13
2022-08-27T02:55:53.688Z,13.90
2022-08-27T02:58:21.802Z,12.57
2022-08-27T03:00:50.006Z,13.27
2022-08-27T03:03:18.175Z,13.38
2022-08-27T03:05:46.337Z,14.90
2022-08-27T03:08:14.491Z,11.70
2022-08-27T03:10:44.044Z,10.23
2022-08-27T03:13:12.238Z,13.18
2022-08-27T03:15:40.502Z,16.40
2022-08-27T03:18:19.764Z,13.50
2022-08-27T03:20:49.524Z,14.02
2022-08-27T03:23:17.881Z,12.88
2022-08-27T03:25:51.557Z,11.20
2022-08-27T03:28:23.195Z,13.10
2022-08-27T03:30:52.993Z,11.50
2022-08-27T03:33:22.378Z,12.00
2022-08-27T03:35:52.051Z,14.00
2022-08-27T03:38:20.518Z,13.32
2022-08-27T03:40:50.259Z,14.98
2022-08-27T03:43:18.699Z,10.52
2022-08-27T03:45:57.535Z,11.63
2022-08-27T03:48:30.727Z,12.75
2022-08-27T03:50:58.913Z,10.13
2022-08-27T03:53:28.313Z,11.80
2022-08-27T03:55:57.909Z,11.63
2022-08-27T03:58:26.093Z,13.10
2022-08-27T04:00:54.276Z,18.30
2022-08-27T04:03:22.493Z,19.92
2022-08-27T04:05:54.033Z,14.30
2022-08-27T04:08:23.087Z,12.90
2022-08-27T04:10:51.524Z,13.45
2022-08-27T04:13:21.094Z,13.32
2022-08-27T04:15:50.644Z,12.25
2022-08-27T04:18:18.964Z,11.65
2022-08-27T04:20:47.372Z,14.80
2022-08-27T04:23:15.553Z,11.52
2022-08-27T04:25:43.876Z,11.82
2022-08-27T04:28:12.453Z,11.18
2022-08-27T04:30:42.924Z,10.98
2022-08-27T04:33:11.113Z,14.10
2022-08-27T04:35:39.230Z,15.43
2022-08-27T04:38:07.550Z,11.23
2022-08-27T04:40:54.727Z,9.23
2022-08-27T04:43:22.935Z,15.32
2022-08-27T04:45:52.492Z,14.88
2022-08-27T04:48:20.648Z,17.88
2022-08-27T04:50:48.997Z,20.30
2022-08-27T04:53:17.744Z,22.30
2022-08-27T04:55:46.588Z,12.55
2022-08-27T04:58:14.943Z,19.15
2022-08-27T05:00:46.442Z,11.77
2022-08-27T05:03:16.624Z,14.63
2022-08-27T05:05:45.129Z,12.90
2022-08-27T05:08:13.728Z,14.77
2022-08-27T05:10:42.683Z,12.85
2022-08-27T05:13:12.378Z,13.13
2022-08-27T05:15:44.259Z,12.68
2022-08-27T05:18:13.411Z,13.23
2022-08-27T05:20:46.214Z,14.52
2022-08-27T05:23:16.706Z,14.23
2022-08-27T05:25:46.397Z,13.43
2022-08-27T05:28:15.130Z,15.45
2022-08-27T05:30:45.561Z,14.23
2022-08-27T05:33:22.801Z,14.75
2022-08-27T05:35:54.306Z,14.15
2022-08-27T05:38:22.965Z,14.48
2022-08-27T05:40:51.206Z,16.10
2022-08-27T05:43:20.535Z,14.05
2022-08-27T05:45:50.167Z,13.75
2022-08-27T05:48:18.684Z,14.20
2022-08-27T05:50:47.498Z,12.25
2022-08-27T05:53:17.170Z,14.82
2022-08-27T05:55:46.336Z,13.15
2022-08-27T05:58:29.216Z,14.55
2022-08-27T06:01:10.118Z,14.85
2022-08-27T06:03:39.163Z,15.50
2022-08-27T06:06:10.681Z,14.15
2022-08-27T06:08:54.093Z,17.33
2022-08-27T06:11:23.612Z,16.88
2022-08-27T06:13:51.965Z,14.23
2022-08-27T06:16:20.300Z,16.05
2022-08-27T06:18:49.353Z,15.98
2022-08-27T06:21:21.446Z,13.80
2022-08-27T06:23:53.607Z,12.10
2022-08-27T06:26:23.084Z,14.43
2022-08-27T06:28:51.287Z,14.95
2022-08-27T06:31:20.692Z,14.50
2022-08-27T06:33:48.866Z,49.58
2022-08-27T06:36:18.276Z,128.40
2022-08-27T06:38:48.666Z,70.55
2022-08-27T06:41:23.503Z,41.60
2022-08-27T06:43:53.766Z,23.73
2022-08-27T06:46:24.632Z,18.45
2022-08-27T06:48:53.283Z,16.63
2022-08-27T06:51:25.014Z,18.65
2022-08-27T06:53:57.051Z,16.80
2022-08-27T06:56:27.097Z,18.25
2022-08-27T06:58:56.812Z,18.52
2022-08-27T07:01:30.767Z,15.68
2022-08-27T07:03:59.902Z,19.27
2022-08-27T07:06:35.285Z,15.50
2022-08-27T07:09:04.341Z,15.70
2022-08-27T07:11:34.248Z,15.55
2022-08-27T07:14:02.858Z,14.25
2022-08-27T07:16:31.697Z,15.57
2022-08-27T07:19:03.902Z,13.88
2022-08-27T07:21:47.768Z,16.17
2022-08-27T07:24:16.284Z,15.30
2022-08-27T07:26:47.353Z,15.43
2022-08-27T07:29:16.351Z,14.13
2022-08-27T07:31:44.796Z,14.57
2022-08-27T07:34:16.290Z,16.92
2022-08-27T07:36:44.914Z,14.70
2022-08-27T07:39:16.733Z,14.55
2022-08-27T07:42:04.870Z,15.23
2022-08-27T07:44:34.669Z,16.08
2022-08-27T07:47:09.424Z,17.90
2022-08-27T07:49:44.042Z,12.70
2022-08-27T07:52:13.580Z,16.23
2022-08-27T07:54:42.299Z,14.40
2022-08-27T07:57:12.139Z,12.35
2022-08-27T07:59:45.344Z,14.15
2022-08-27T08:02:19.938Z,18.33
2022-08-27T08:04:48.895Z,17.45
2022-08-27T08:07:17.659Z,33.92
2022-08-27T08:09:46.363Z,40.35
2022-08-27T08:12:16.262Z,40.88
2022-08-27T08:14:44.937Z,27.98
2022-08-27T08:17:14.817Z,29.75
2022-08-27T08:20:02.442Z,28.60
2022-08-27T08:22:33.347Z,27.88
2022-08-27T08:25:01.766Z,29.75
2022-08-27T08:27:32.673Z,36.20
2022-08-27T08:30:00.968Z,46.70
2022-08-27T08:32:29.754Z,49.75
2022-08-27T08:35:00.083Z,40.63
2022-08-27T08:37:28.598Z,32.15
2022-08-27T08:39:57.005Z,33.45
2022-08-27T08:42:32.178Z,35.65
2022-08-27T08:45:01.065Z,24.27
2022-08-27T08:47:31.462Z,23.25
2022-08-27T08:50:03.843Z,21.90
2022-08-27T08:52:41.714Z,17.88
2022-08-27T08:55:15.327Z,19.23
2022-08-27T08:57:48.728Z,15.40
2022-08-27T09:00:17.300Z,23.27
2022-08-27T09:02:50.549Z,19.48
2022-08-27T09:05:27.601Z,19.58
2022-08-27T09:08:28.462Z,23.38
2022-08-27T09:10:53.989Z,17.75
2022-08-27T09:13:25.232Z,16.60
2022-08-27T09:16:02.433Z,16.42
2022-08-27T09:18:35.540Z,16.98
2022-08-27T09:21:10.412Z,17.40
2022-08-27T09:23:42.363Z,15.25
2022-08-27T09:26:19.435Z,14.95
2022-08-27T09:29:06.947Z,12.93
2022-08-27T09:31:38.443Z,15.63
2022-08-27T09:34:06.893Z,13.73
2022-08-27T09:36:35.067Z,16.55
2022-08-27T09:39:09.133Z,11.80
2022-08-27T09:41:50.959Z,11.57
2022-08-27T09:44:22.879Z,16.90
2022-08-27T09:46:55.738Z,13.98
2022-08-27T09:49:24.880Z,13.75
2022-08-27T09:51:53.317Z,14.10
2022-08-27T09:54:41.997Z,16.75
2022-08-27T09:57:11.391Z,15.02
2022-08-27T09:59:42.816Z,14.30
2022-08-27T10:02:15.462Z,14.15
2022-08-27T10:04:50.627Z,14.15
2022-08-27T10:07:34.955Z,14.30
2022-08-27T10:10:07.912Z,14.70
2022-08-27T10:12:40.458Z,16.50
2022-08-27T10:15:10.508Z,14.63
2022-08-27T10:17:43.405Z,13.75
2022-08-27T10:20:18.324Z,14.23
2022-08-27T10:23:03.215Z,12.25
2022-08-27T10:25:37.043Z,15.40
2022-08-27T10:28:11.844Z,13.55
2022-08-27T10:30:49.027Z,14.05
2022-08-27T10:33:23.566Z,16.42
2022-08-27T10:35:59.995Z,13.98
2022-08-27T10:38:33.225Z,14.13
2022-08-27T10:41:08.470Z,16.50
2022-08-27T10:44:04.651Z,18.73
2022-08-27T10:46:50.164Z,19.77
2022-08-27T10:49:21.753Z,17.92
2022-08-27T10:51:52.398Z,16.90
2022-08-27T10:54:26.169Z,15.10
2022-08-27T10:57:14.430Z,15.13
2022-08-27T10:59:47.746Z,16.27
2022-08-27T11:02:24.139Z,20.52
2022-08-27T11:04:54.992Z,15.75
2022-08-27T11:07:24.835Z,15.07
2022-08-27T11:09:57.182Z,12.65
2022-08-27T11:12:27.662Z,17.63
2022-08-27T11:14:57.474Z,14.73
2022-08-27T11:17:32.425Z,16.80
2022-08-27T11:20:02.544Z,20.38
2022-08-27T11:22:34.514Z,16.95
2022-08-27T11:25:07.792Z,15.50
2022-08-27T11:27:35.880Z,19.35
2022-08-27T11:30:06.986Z,20.35
2022-08-27T11:32:44.810Z,16.40
2022-08-27T11:35:16.373Z,19.75
2022-08-27T11:38:25.365Z,16.30
2022-08-27T11:41:00.666Z,14.65
2022-08-27T11:43:37.040Z,14.55
2022-08-27T11:46:06.323Z,16.98
2022-08-27T11:48:35.370Z,12.93
2022-08-27T11:51:04.194Z,17.38
2022-08-27T11:53:33.461Z,16.27
2022-08-27T11:56:15.798Z,14.85
2022-08-27T11:58:53.383Z,14.35
2022-08-27T12:01:27.697Z,15.98
2022-08-27T12:04:02.188Z,14.52
2022-08-27T12:06:40.410Z,17.33
2022-08-27T12:09:14.286Z,13.80
2022-08-27T12:11:45.228Z,14.07
2022-08-27T12:14:21.599Z,16.45
2022-08-27T12:16:55.033Z,12.35
2022-08-27T12:19:33.827Z,13.63
2022-08-27T12:22:13.124Z,14.23
2022-08-27T12:24:49.862Z,13.75
2022-08-27T12:27:29.322Z,14.93
2022-08-27T12:30:00.018Z,12.43
2022-08-27T12:32:33.063Z,15.02
2022-08-27T12:35:06.339Z,14.07
2022-08-27T12:37:36.895Z,12.32
2022-08-27T12:40:12.856Z,13.23
2022-08-27T12:42:41.056Z,17.52
2022-08-27T12:45:18.856Z,15.02
2022-08-27T12:47:50.990Z,15.15
2022-08-27T12:50:24.959Z,12.95
2022-08-27T12:53:18.068Z,14.07
2022-08-27T12:55:54.341Z,12.10
2022-08-27T12:58:25.987Z,15.70
2022-08-27T13:01:03.917Z,13.90
2022-08-27T13:03:34.233Z,13.05
2022-08-27T13:06:02.283Z,13.40
2022-08-27T13:08:31.116Z,13.32
2022-08-27T13:11:08.899Z,15.95
2022-08-27T13:13:41.102Z,13.05
2022-08-27T13:16:10.622Z,17.10
2022-08-27T13:18:38.914Z,15.65
2022-08-27T13:21:10.519Z,15.00
2022-08-27T13:23:38.640Z,16.17
2022-08-27T13:26:08.181Z,14.27
2022-08-27T13:28:36.911Z,15.90
2022-08-27T13:31:05.712Z,14.68
2022-08-27T13:33:36.113Z,18.75
2022-08-27T13:36:06.643Z,14.65
2022-08-27T13:38:36.202Z,14.43
2022-08-27T13:41:07.362Z,14.20
2022-08-27T13:43:36.725Z,13.50
2022-08-27T13:46:07.530Z,15.15
2022-08-27T13:48:37.214Z,15.40
2022-08-27T13:51:07.003Z,16.75
2022-08-27T13:53:52.409Z,13.23
2022-08-27T13:56:28.287Z,14.48
2022-08-27T13:58:56.553Z,13.10
2022-08-27T14:01:31.285Z,12.88
2022-08-27T14:04:04.156Z,13.00
2022-08-27T14:06:44.647Z,13.48
2022-08-27T14:09:16.026Z,12.25
2022-08-27T14:11:44.196Z,13.98
2022-08-27T14:14:12.536Z,12.30
2022-08-27T14:16:40.772Z,11.32
2022-08-27T14:19:11.383Z,12.60
2022-08-27T14:21:40.956Z,11.65
2022-08-27T14:24:09.183Z,12.82
2022-08-27T14:26:37.502Z,13.90
2022-08-27T14:29:11.272Z,12.38
2022-08-27T14:31:40.452Z,14.48
2022-08-27T14:34:10.013Z,12.52
2022-08-27T14:36:38.448Z,12.82
2022-08-27T14:39:06.678Z,13.70
2022-08-27T14:41:34.919Z,11.43
2022-08-27T14:44:03.003Z,13.40
2022-08-27T14:46:33.463Z,11.93
2022-08-27T14:49:01.880Z,13.77
2022-08-27T14:51:32.185Z,12.52
2022-08-27T14:54:00.344Z,12.40
2022-08-27T14:56:28.475Z,11.95
2022-08-27T14:58:56.811Z,17.10
2022-08-27T15:01:26.176Z,14.40
2022-08-27T15:03:54.684Z,12.23
2022-08-27T15:06:23.689Z,12.57
2022-08-27T15:08:53.572Z,13.90
2022-08-27T15:11:23.541Z,12.18
2022-08-27T15:13:51.741Z,10.95
2022-08-27T15:16:28.635Z,13.18
2022-08-27T15:19:00.698Z,11.63
2022-08-27T15:21:29.198Z,13.95
2022-08-27T15:23:59.794Z,11.35
2022-08-27T15:26:28.155Z,12.45
2022-08-27T15:28:56.289Z,10.93
2022-08-27T15:31:24.616Z,12.68
2022-08-27T15:33:52.869Z,13.55
2022-08-27T15:36:21.028Z,12.93
2022-08-27T15:38:49.219Z,10.68
2022-08-27T15:41:18.701Z,13.38
2022-08-27T15:43:46.830Z,11.02
2022-08-27T15:46:15.104Z,10.70
2022-08-27T15:48:43.274Z,11.07
2022-08-27T15:51:13.339Z,11.60
2022-08-27T15:53:42.297Z,14.38
2022-08-27T15:56:10.491Z,13.82
2022-08-27T15:58:39.975Z,14.20
2022-08-27T16:01:11.335Z,11.93
2022-08-27T16:03:39.734Z,10.77
2022-08-27T16:06:08.823Z,10.93
2022-08-27T16:08:41.979Z,12.68
2022-08-27T16:11:10.518Z,10.95
2022-08-27T16:13:39.978Z,14.43
2022-08-27T16:16:08.468Z,14.27
2022-08-27T16:18:36.635Z,13.57
2022-08-27T16:21:05.135Z,12.20
2022-08-27T16:23:33.614Z,13.52
2022-08-27T16:26:02.004Z,14.73
2022-08-27T16:28:30.150Z,11.48
2022-08-27T16:30:59.730Z,13.75
2022-08-27T16:33:27.936Z,12.45
2022-08-27T16:35:56.018Z,10.70
2022-08-27T16:38:24.307Z,11.00
2022-08-27T16:40:53.881Z,11.40
2022-08-27T16:43:22.939Z,12.07
2022-08-27T16:45:51.173Z,12.05
2022-08-27T16:48:38.217Z,13.20
2022-08-27T16:51:07.135Z,13.18
2022-08-27T16:53:38.275Z,9.27
2022-08-27T16:56:06.851Z,10.70
2022-08-27T16:58:34.945Z,10.18
2022-08-27T17:01:04.448Z,11.20
2022-08-27T17:03:52.129Z,12.43
2022-08-27T17:06:22.367Z,9.55
2022-08-27T17:08:50.881Z,11.15
2022-08-27T17:11:20.003Z,13.27
2022-08-27T17:13:49.887Z,12.20
2022-08-27T17:16:19.473Z,11.15
2022-08-27T17:18:49.227Z,10.82
2022-08-27T17:21:18.423Z,9.00
2022-08-27T17:23:47.620Z,12.10
2022-08-27T17:26:16.256Z,10.60
2022-08-27T17:28:44.812Z,9.90
2022-08-27T17:31:15.269Z,12.90
2022-08-27T17:33:45.409Z,11.75
2022-08-27T17:36:15.651Z,10.80
2022-08-27T17:38:43.849Z,11.70
2022-08-27T17:41:14.094Z,11.68
2022-08-27T17:43:42.358Z,11.05
2022-08-27T17:46:11.578Z,16.25
2022-08-27T17:48:39.768Z,12.07
2022-08-27T17:51:08.015Z,10.93
2022-08-27T17:53:37.753Z,12.18
2022-08-27T17:56:06.170Z,12.55
2022-08-27T17:58:34.399Z,11.38
2022-08-27T18:01:02.604Z,10.10
2022-08-27T18:03:44.916Z,9.35
2022-08-27T18:06:16.271Z,12.02
2022-08-27T18:08:45.997Z,10.30
2022-08-27T18:11:16.281Z,12.88
2022-08-27T18:13:44.633Z,12.27
2022-08-27T18:16:13.825Z,10.50
2022-08-27T18:18:41.958Z,11.82
2022-08-27T18:21:10.242Z,14.40
2022-08-27T18:23:38.688Z,10.93
2022-08-27T18:26:09.251Z,13.65
2022-08-27T18:28:37.514Z,10.38
2022-08-27T18:31:08.778Z,12.35
2022-08-27T18:33:37.346Z,11.90
2022-08-27T18:36:05.932Z,13.50
2022-08-27T18:38:34.199Z,11.60
2022-08-27T18:41:03.212Z,12.48
2022-08-27T18:43:34.708Z,13.90
2022-08-27T18:46:03.243Z,13.00
2022-08-27T18:48:31.444Z,13.80
2022-08-27T18:51:00.691Z,12.20
2022-08-27T18:53:29.878Z,12.93
2022-08-27T18:55:58.024Z,12.65
2022-08-27T18:58:26.718Z,13.77
2022-08-27T19:00:59.408Z,14.05
2022-08-27T19:03:29.448Z,15.43
2022-08-27T19:05:57.574Z,11.02
2022-08-27T19:08:29.075Z,13.25
2022-08-27T19:10:57.265Z,10.65
2022-08-27T19:13:25.428Z,14.95
2022-08-27T19:15:57.620Z,16.15
2022-08-27T19:18:26.698Z,14.95
2022-08-27T19:20:55.353Z,15.45
2022-08-27T19:23:23.784Z,18.02
2022-08-27T19:25:52.010Z,20.05
2022-08-27T19:28:21.047Z,15.85
2022-08-27T19:30:49.193Z,14.43
2022-08-27T19:33:18.840Z,18.92
2022-08-27T19:35:46.982Z,14.73
2022-08-27T19:38:15.076Z,21.25
2022-08-27T19:40:43.307Z,19.67
2022-08-27T19:43:11.988Z,18.23
2022-08-27T19:45:41.313Z,20.08
2022-08-27T19:48:09.573Z,16.33
2022-08-27T19:50:39.174Z,13.68
2022-08-27T19:53:07.586Z,15.43
2022-08-27T19:55:36.322Z,17.00
2022-08-27T19:58:04.556Z,13.23
2022-08-27T20:00:34.490Z,13.05
2022-08-27T20:03:02.623Z,17.75
2022-08-27T20:05:30.828Z,11.80
2022-08-27T20:08:00.356Z,13.70
2022-08-27T20:10:36.311Z,13.63
2022-08-27T20:13:04.951Z,18.35
2022-08-27T20:15:33.102Z,11.23
2022-08-27T20:18:01.397Z,11.77
2022-08-27T20:20:29.656Z,12.95
2022-08-27T20:22:59.188Z,12.15
2022-08-27T20:25:28.692Z,13.75
2022-08-27T20:27:56.832Z,15.98
2022-08-27T20:30:26.334Z,12.85
2022-08-27T20:32:54.572Z,13.98
2022-08-27T20:35:22.699Z,10.88
2022-08-27T20:37:51.205Z,14.15
2022-08-27T20:40:20.964Z,14.77
2022-08-27T20:42:50.510Z,15.27
2022-08-27T20:45:18.909Z,14.70
2022-08-27T20:47:48.311Z,18.05
2022-08-27T20:50:16.594Z,15.45
2022-08-27T20:52:45.499Z,16.52
2022-08-27T20:55:14.258Z,13.85
2022-08-27T20:58:06.489Z,22.95
2022-08-27T21:00:36.213Z,23.95
2022-08-27T21:03:04.388Z,18.02
2022-08-27T21:05:33.444Z,14.02
2022-08-27T21:08:01.593Z,12.07
2022-08-27T21:10:29.705Z,13.05
2022-08-27T21:12:57.817Z,15.90
2022-08-27T21:15:25.994Z,14.52
2022-08-27T21:17:55.469Z,17.75
2022-08-27T21:20:23.727Z,14.50
2022-08-27T21:22:51.837Z,14.02
2022-08-27T21:25:19.983Z,12.43
2022-08-27T21:27:48.064Z,19.33
2022-08-27T21:30:16.481Z,12.82
2022-08-27T21:32:44.561Z,15.88
2022-08-27T21:35:14.059Z,17.23
2022-08-27T21:37:43.683Z,16.40
2022-08-27T21:40:12.624Z,18.75
2022-08-27T21:42:40.790Z,18.10
2022-08-27T21:45:09.618Z,19.42
2022-08-27T21:47:38.162Z,16.05
2022-08-27T21:50:09.785Z,19.50
2022-08-27T21:52:39.315Z,18.90
2022-08-27T21:55:07.817Z,18.17
2022-08-27T21:57:35.925Z,19.75
2022-08-27T22:00:13.437Z,18.95
2022-08-27T22:02:41.607Z,19.90
2022-08-27T22:05:10.367Z,17.88
2022-08-27T22:07:39.899Z,18.42
2022-08-27T22:10:09.001Z,23.95
2022-08-27T22:12:37.107Z,20.85
2022-08-27T22:15:05.866Z,23.42
2022-08-27T22:17:33.982Z,20.88
2022-08-27T22:20:02.200Z,19.70
2022-08-27T22:22:30.772Z,21.30
2022-08-27T22:25:00.507Z,21.92
2022-08-27T22:27:28.697Z,19.38
2022-08-27T22:29:56.817Z,19.48
2022-08-27T22:32:24.912Z,19.08
2022-08-27T22:34:53.006Z,20.75
2022-08-27T22:37:21.207Z,19.23
2022-08-27T22:39:49.393Z,20.27
2022-08-27T22:42:18.868Z,18.70
2022-08-27T22:44:48.255Z,19.88
2022-08-27T22:47:16.378Z,21.42
2022-08-27T22:49:44.530Z,20.77
2022-08-27T22:52:12.657Z,21.90
2022-08-27T22:54:40.976Z,19.38
2022-08-27T22:57:10.351Z,21.27
2022-08-27T22:59:40.234Z,23.35
2022-08-27T23:02:09.416Z,19.50
2022-08-27T23:04:54.145Z,20.10
2022-08-27T23:07:23.432Z,20.17
2022-08-27T23:09:51.587Z,17.38
2022-08-27T23:12:20.136Z,21.65
2022-08-27T23:14:49.620Z,19.50
2022-08-27T23:17:17.763Z,17.95
2022-08-27T23:19:46.124Z,20.05
2022-08-27T23:22:14.781Z,19.00
2022-08-27T23:24:56.903Z,21.25
2022-08-27T23:27:30.638Z,16.52
2022-08-27T23:30:00.943Z,15.95
2022-08-27T23:32:29.103Z,18.15
2022-08-27T23:34:57.333Z,16.25
2022-08-27T23:37:25.462Z,17.38
2022-08-27T23:39:53.617Z,15.93
2022-08-27T23:42:21.801Z,17.33
2022-08-27T23:44:49.968Z,18.40
2022-08-27T23:47:19.789Z,18.92
2022-08-27T23:49:48.136Z,17.05
2022-08-27T23:52:16.237Z,16.40
2022-08-27T23:54:44.345Z,14.70
2022-08-27T23:57:12.480Z,17.70
2022-08-27T23:59:40.568Z,16.83
